Time;durP1;ratioP1;P1;durP2;ratioP2;P2;SDS_P1;SDS_P2;PMS_P1;PMS_P2;Temp;Humidity;BMP_temperature;BMP_pressure;BME280_temperature;BME280_humidity;BME280_pressure;Samples;Min_cycle;Max_cycle;Signal;HPM_P1;HPM_P2
2021/11/08 00:01:42;;;;;;;2.78;2.58;;;;;;;-143.85;100.00;70650.75;5096191;28;20028;-73
2021/11/08 00:04:07;;;;;;;14.23;6.10;;;;;;;-143.85;100.00;70650.75;5095227;28;20024;-79
2021/11/08 00:06:33;;;;;;;1.67;1.52;;;;;;;-143.85;100.00;70650.75;5095815;28;20046;-77
2021/11/08 00:08:59;;;;;;;7.63;5.35;;;;;;;-143.85;100.00;70650.75;5096199;28;20036;-77
2021/11/08 00:11:25;;;;;;;7.55;3.88;;;;;;;-143.85;100.00;70650.75;5094976;28;20024;-79
2021/11/08 00:13:51;;;;;;;2.20;2.10;;;;;;;-143.85;100.00;70650.75;5094864;28;20472;-76
2021/11/08 00:21:21;;;;;;;6.35;3.53;;;;;;;-143.85;100.00;70650.75;5096038;28;20032;-75
2021/11/08 00:23:47;;;;;;;2.90;2.70;;;;;;;-143.85;100.00;70650.75;5095772;28;20111;-75
2021/11/08 00:26:12;;;;;;;3.03;2.65;;;;;;;-143.85;100.00;70650.75;5094479;28;20024;-77
2021/11/08 00:28:39;;;;;;;4.53;4.10;;;;;;;-143.85;100.00;70650.75;5094363;28;20020;-75
2021/11/08 00:31:05;;;;;;;3.20;2.60;;;;;;;-143.85;100.00;70650.75;5094773;28;20483;-73
2021/11/08 00:33:30;;;;;;;3.38;3.17;;;;;;;-143.85;100.00;70650.75;5094546;28;20181;-77
2021/11/08 00:36:00;;;;;;;4.75;4.22;;;;;;;-143.85;100.00;70650.75;5095228;28;20126;-75
2021/11/08 00:38:27;;;;;;;2.33;2.22;;;;;;;-143.85;100.00;70650.75;5094535;28;20032;-76
2021/11/08 00:40:54;;;;;;;3.83;3.55;;;;;;;-143.85;100.00;70650.75;5094152;28;20028;-76
2021/11/08 00:43:20;;;;;;;6.68;3.72;;;;;;;-143.85;100.00;70650.75;5094292;28;20043;-76
2021/11/08 00:45:46;;;;;;;3.33;2.38;;;;;;;-143.85;100.00;70650.75;5095732;28;20100;-76
2021/11/08 00:48:18;;;;;;;2.17;2.03;;;;;;;-143.85;100.00;70650.75;5094389;28;20480;-76
2021/11/08 00:50:43;;;;;;;2.83;2.67;;;;;;;-143.85;100.00;70650.75;5094650;28;20111;-76
2021/11/08 00:53:09;;;;;;;8.50;5.70;;;;;;;-143.85;100.00;70650.75;5094232;28;20537;-75
2021/11/08 00:55:37;;;;;;;5.20;3.78;;;;;;;-143.85;100.00;70650.75;5094140;28;20024;-72
2021/11/08 00:58:03;;;;;;;3.63;3.40;;;;;;;-143.85;100.00;70650.75;5093789;28;20097;-75
2021/11/08 01:00:31;;;;;;;3.38;3.13;;;;;;;-143.85;100.00;70650.75;5093936;28;20506;-76
2021/11/08 01:03:00;;;;;;;8.57;4.35;;;;;;;-143.85;100.00;70650.75;5093932;28;20546;-77
2021/11/08 01:05:26;;;;;;;3.92;3.63;;;;;;;-143.85;100.00;70650.75;5093826;28;20088;-76
2021/11/08 01:07:51;;;;;;;4.72;4.43;;;;;;;-143.85;100.00;70650.75;5093652;28;20139;-73
2021/11/08 01:10:19;;;;;;;3.97;3.25;;;;;;;-143.85;100.00;70650.75;5093863;28;20491;-74
2021/11/08 01:12:45;;;;;;;4.68;4.03;;;;;;;-143.85;100.00;70650.75;5094000;28;20031;-74
2021/11/08 01:15:13;;;;;;;6.40;4.82;;;;;;;-143.85;100.00;70650.75;5093740;28;20036;-74
2021/11/08 01:17:40;;;;;;;9.63;6.63;;;;;;;-143.85;100.00;70650.75;5093780;28;20484;-74
2021/11/08 01:20:09;;;;;;;9.57;7.32;;;;;;;-143.85;100.00;70650.75;5094054;28;20128;-77
2021/11/08 01:22:35;;;;;;;9.43;4.45;;;;;;;-143.85;100.00;70650.75;5094785;28;20371;-73
2021/11/08 01:25:01;;;;;;;6.03;3.42;;;;;;;-143.85;100.00;70650.75;5094049;28;20407;-74
2021/11/08 01:27:51;;;;;;;5.47;3.63;;;;;;;-143.85;100.00;70650.75;5093365;28;20032;-76
2021/11/08 01:30:19;;;;;;;1.73;1.63;;;;;;;-143.85;100.00;70650.75;5093547;28;20024;-75
2021/11/08 01:33:08;;;;;;;1.50;1.40;;;;;;;-143.85;100.00;70650.75;5093304;28;20120;-77
2021/11/08 01:35:57;;;;;;;3.28;3.08;;;;;;;-143.85;100.00;70650.75;5093141;28;20103;-74
2021/11/08 01:38:25;;;;;;;3.00;2.78;;;;;;;-143.85;100.00;70650.75;5093419;28;20483;-77
2021/11/08 01:40:51;;;;;;;4.80;4.20;;;;;;;-143.85;100.00;70650.75;5093054;28;20024;-77
2021/11/08 01:43:17;;;;;;;1.88;1.77;;;;;;;-143.85;100.00;70650.75;5094316;28;20028;-78
2021/11/08 01:45:44;;;;;;;2.20;2.00;;;;;;;-143.85;100.00;70650.75;5093158;28;20450;-78
2021/11/08 01:48:11;;;;;;;3.65;2.65;;;;;;;-143.85;100.00;70650.75;5092656;28;20031;-77
2021/11/08 01:50:38;;;;;;;2.33;2.17;;;;;;;-143.85;100.00;70650.75;5092492;28;20027;-79
2021/11/08 01:53:05;;;;;;;4.13;1.85;;;;;;;-143.85;100.00;70650.75;5092560;28;20050;-78
2021/11/08 01:55:33;;;;;;;2.25;2.05;;;;;;;-143.85;100.00;70650.75;5094087;28;20514;-75
2021/11/08 01:57:59;;;;;;;2.20;2.10;;;;;;;-143.85;100.00;70650.75;5092899;28;20419;-79
2021/11/08 02:00:26;;;;;;;2.63;2.45;;;;;;;-143.85;100.00;70650.75;5092771;28;20032;-73
2021/11/08 02:02:52;;;;;;;4.97;3.33;;;;;;;-143.85;100.00;70650.75;5092770;28;20051;-73
2021/11/08 02:05:18;;;;;;;7.55;4.93;;;;;;;-143.85;100.00;70650.75;5092710;28;20026;-78
2021/11/08 02:07:45;;;;;;;1.95;1.23;;;;;;;-143.85;100.00;70650.75;5092412;28;20044;-75
2021/11/08 02:10:12;;;;;;;8.82;3.97;;;;;;;-143.85;100.00;70650.75;5093752;28;20124;-75
2021/11/08 02:12:39;;;;;;;1.50;1.40;;;;;;;-143.85;100.00;70650.75;5092531;28;20093;-76
2021/11/08 02:15:07;;;;;;;2.40;2.13;;;;;;;-143.85;100.00;70650.75;5093182;28;20097;-78
2021/11/08 02:17:33;;;;;;;1.98;1.85;;;;;;;-143.85;100.00;70650.75;5092545;28;20077;-75
2021/11/08 02:20:13;;;;;;;4.35;3.78;;;;;;;-143.85;100.00;70650.75;5092392;28;20495;-78
2021/11/08 02:22:39;;;;;;;2.35;2.22;;;;;;;-143.85;100.00;70650.75;5092707;28;20051;-72
2021/11/08 02:25:05;;;;;;;4.15;3.75;;;;;;;-143.85;100.00;70650.75;5092654;28;20467;-73
2021/11/08 02:27:30;;;;;;;1.42;1.33;;;;;;;-143.85;100.00;70650.75;5092733;28;20502;-74
2021/11/08 02:29:56;;;;;;;10.40;3.33;;;;;;;-143.85;100.00;70650.75;5093638;28;20035;-73
2021/11/08 02:32:21;;;;;;;4.10;2.05;;;;;;;-143.85;100.00;70650.75;5092397;28;20115;-74
2021/11/08 02:34:47;;;;;;;10.32;3.28;;;;;;;-143.85;100.00;70650.75;5093712;28;20032;-74
2021/11/08 02:37:13;;;;;;;3.13;1.95;;;;;;;-143.85;100.00;70650.75;5092540;28;20028;-73
2021/11/08 02:39:41;;;;;;;1.75;1.65;;;;;;;-143.85;100.00;70650.75;5092334;28;20020;-74
2021/11/08 02:42:06;;;;;;;;;;;;;;;-143.85;100.00;70650.75;5092584;28;20116;-74
2021/11/08 02:44:32;;;;;;;3.17;2.33;;;;;;;-143.85;100.00;70650.75;5092733;28;20425;-73
2021/11/08 02:46:58;;;;;;;2.08;1.48;;;;;;;-143.85;100.00;70650.75;5092117;28;20498;-73
2021/11/08 02:49:27;;;;;;;6.05;0.95;;;;;;;-143.85;100.00;70650.75;5092132;28;20024;-75
2021/11/08 02:52:27;;;;;;;1.95;1.85;;;;;;;-143.85;100.00;70650.75;5092035;28;20047;-73
2021/11/08 02:54:51;;;;;;;2.60;2.38;;;;;;;-143.85;100.00;70650.75;5090009;28;20225;-79
2021/11/08 02:57:20;;;;;;;1.80;1.25;;;;;;;-143.85;100.00;70650.75;5091987;28;20085;-76
2021/11/08 02:59:46;;;;;;;1.75;1.65;;;;;;;-143.85;100.00;70650.75;5093039;28;20480;-80
2021/11/08 03:02:14;;;;;;;1.48;1.38;;;;;;;-143.85;100.00;70650.75;5091822;28;20494;-74
2021/11/08 03:04:42;;;;;;;2.38;1.90;;;;;;;-143.85;100.00;70650.75;5091783;28;20028;-72
2021/11/08 03:07:07;;;;;;;;;;;;;;;-143.85;100.00;70650.75;5092383;28;20125;-78
2021/11/08 03:09:38;;;;;;;2.40;1.25;;;;;;;-143.85;100.00;70650.75;5092043;28;20379;-73
2021/11/08 03:12:10;;;;;;;4.78;2.45;;;;;;;-143.85;100.00;70650.75;5092258;28;20023;-73
2021/11/08 03:14:41;;;;;;;1.40;1.40;;;;;;;-143.85;100.00;70650.75;5093159;28;20457;-72
2021/11/08 03:17:08;;;;;;;3.97;3.58;;;;;;;-143.85;100.00;70650.75;5092954;28;20084;-73
2021/11/08 03:19:36;;;;;;;5.75;2.17;;;;;;;-143.85;100.00;70650.75;5092391;28;20110;-73
2021/11/08 03:22:12;;;;;;;1.27;1.27;;;;;;;-143.85;100.00;70650.75;5092850;28;20043;-77
2021/11/08 03:24:40;;;;;;;0.70;0.70;;;;;;;-143.85;100.00;70650.75;5092054;28;20029;-80
2021/11/08 03:27:22;;;;;;;3.55;2.38;;;;;;;-143.85;100.00;70650.75;5092810;28;20028;-81
2021/11/08 03:29:50;;;;;;;0.82;0.82;;;;;;;-143.85;100.00;70650.75;5092243;28;20093;-72
2021/11/08 03:32:17;;;;;;;;;;;;;;;-143.85;100.00;70650.75;5092154;28;20032;-77
2021/11/08 03:34:53;;;;;;;3.70;3.42;;;;;;;-143.85;100.00;70650.75;5092072;28;19915;-73
2021/11/08 03:37:19;;;;;;;1.55;1.20;;;;;;;-143.85;100.00;70650.75;5091872;28;20050;-76
2021/11/08 03:39:45;;;;;;;5.00;3.30;;;;;;;-143.85;100.00;70650.75;5092369;28;20440;-78
2021/11/08 03:42:11;;;;;;;1.15;1.05;;;;;;;-143.85;100.00;70650.75;5091568;28;20030;-75
2021/11/08 03:44:36;;;;;;;2.28;1.50;;;;;;;-143.85;100.00;70650.75;5091391;28;20038;-73
2021/11/08 03:47:02;;;;;;;1.75;1.65;;;;;;;-143.85;100.00;70650.75;5092801;28;20111;-75
2021/11/08 03:49:28;;;;;;;1.83;1.75;;;;;;;-143.85;100.00;70650.75;5091556;28;20118;-73
2021/11/08 03:51:53;;;;;;;3.00;1.42;;;;;;;-143.85;100.00;70650.75;5091736;28;20566;-73
2021/11/08 03:54:19;;;;;;;3.05;2.72;;;;;;;-143.85;100.00;70650.75;5091541;28;20093;-77
2021/11/08 03:56:44;;;;;;;1.58;1.35;;;;;;;-143.85;100.00;70650.75;5091498;28;20024;-74
2021/11/08 03:59:10;;;;;;;2.22;2.13;;;;;;;-143.85;100.00;70650.75;5091282;28;20071;-77
2021/11/08 04:01:36;;;;;;;1.50;1.40;;;;;;;-143.85;100.00;70650.75;5091362;28;20025;-79
2021/11/08 04:04:05;;;;;;;5.35;2.42;;;;;;;-143.85;100.00;70650.75;5091319;28;20055;-76
2021/11/08 04:06:33;;;;;;;1.40;1.35;;;;;;;-143.85;100.00;70650.75;5091183;28;20437;-76
2021/11/08 04:08:59;;;;;;;4.28;1.58;;;;;;;-143.85;100.00;70650.75;5091412;28;20066;-75
2021/11/08 04:11:27;;;;;;;2.60;2.38;;;;;;;-143.85;100.00;70650.75;5091169;28;20028;-77
2021/11/08 04:13:56;;;;;;;1.92;1.83;;;;;;;-143.85;100.00;70650.75;5091467;28;20407;-80
2021/11/08 04:16:22;;;;;;;1.90;1.83;;;;;;;-143.85;100.00;70650.75;5095424;28;20097;-76
2021/11/08 04:18:52;;;;;;;0.98;0.98;;;;;;;-143.85;100.00;70650.75;5094778;28;20031;-79
2021/11/08 04:21:19;;;;;;;1.52;1.42;;;;;;;-143.85;100.00;70650.75;5094765;28;20501;-76
2021/11/08 04:23:45;;;;;;;2.95;2.50;;;;;;;-143.85;100.00;70650.75;5095042;28;20416;-81
2021/11/08 04:26:14;;;;;;;1.52;1.48;;;;;;;-143.85;100.00;70650.75;5094711;28;20028;-76
2021/11/08 04:28:40;;;;;;;1.13;1.13;;;;;;;-143.85;100.00;70650.75;5094772;28;20407;-78
2021/11/08 04:31:07;;;;;;;0.50;0.50;;;;;;;-143.85;100.00;70650.75;5094540;28;20024;-81
2021/11/08 04:33:44;;;;;;;1.15;1.05;;;;;;;-143.85;100.00;70650.75;5094706;28;20495;-76
2021/11/08 04:41:14;;;;;;;;;;;;;;;-143.85;100.00;70650.75;5096312;28;19958;-73
2021/11/08 04:51:58;;;;;;;3.03;2.83;;;;;;;-143.85;100.00;70650.75;5096066;28;20089;-74
2021/11/08 04:54:38;;;;;;;3.47;3.22;;;;;;;-143.85;100.00;70650.75;5096078;28;20024;-74
2021/11/08 05:31:50;;;;;;;1.30;1.27;;;;;;;-143.85;100.00;70650.75;5094661;28;20032;-75
2021/11/08 05:34:16;;;;;;;2.38;2.28;;;;;;;-143.85;100.00;70650.75;5093548;28;20017;-76
2021/11/08 05:36:42;;;;;;;1.60;1.58;;;;;;;-143.85;100.00;70650.75;5093517;28;20498;-75
2021/11/08 05:39:09;;;;;;;1.63;1.50;;;;;;;-143.85;100.00;70650.75;5094662;28;20028;-74
2021/11/08 05:41:35;;;;;;;1.48;1.38;;;;;;;-143.85;100.00;70650.75;5093274;28;20449;-74
2021/11/08 05:44:03;;;;;;;3.65;3.42;;;;;;;-143.85;100.00;70650.75;5094314;28;20510;-79
2021/11/08 05:46:33;;;;;;;7.72;2.58;;;;;;;-143.85;100.00;70650.75;5093526;28;20028;-78
2021/11/08 05:48:58;;;;;;;4.80;3.22;;;;;;;-143.85;100.00;70650.75;5093111;28;20114;-78
2021/11/08 05:51:24;;;;;;;5.10;4.70;;;;;;;-143.85;100.00;70650.75;5094120;28;20063;-75
2021/11/08 05:53:51;;;;;;;3.15;2.95;;;;;;;-143.85;100.00;70650.75;5093305;28;20024;-79
2021/11/08 06:50:23;;;;;;;2.30;2.20;;;;;;;-143.85;100.00;70650.75;5092719;28;20043;-72
2021/11/08 06:52:51;;;;;;;5.57;1.67;;;;;;;-143.85;100.00;70650.75;5092621;28;20020;-74
2021/11/08 06:55:17;;;;;;;3.13;2.92;;;;;;;-143.85;100.00;70650.75;5091072;28;20027;-77
2021/11/08 06:57:47;;;;;;;1.73;1.67;;;;;;;-143.85;100.00;70650.75;5090600;28;20028;-79
2021/11/08 07:00:19;;;;;;;4.13;2.92;;;;;;;-143.85;100.00;70650.75;5090340;28;20028;-78
2021/11/08 07:02:45;;;;;;;1.60;1.50;;;;;;;-143.85;100.00;70650.75;5091503;28;20028;-78
2021/11/08 07:05:10;;;;;;;2.90;2.70;;;;;;;-143.85;100.00;70650.75;5090399;28;20051;-78
2021/11/08 07:07:36;;;;;;;5.22;2.40;;;;;;;-143.85;100.00;70650.75;5090406;28;20046;-78
2021/11/08 07:10:04;;;;;;;2.58;2.35;;;;;;;-143.85;100.00;70650.75;5090785;28;20036;-78
2021/11/08 07:12:30;;;;;;;3.17;2.17;;;;;;;-143.85;100.00;70650.75;5090788;28;20391;-74
2021/11/08 07:14:56;;;;;;;3.33;2.22;;;;;;;-143.85;100.00;70650.75;5091193;28;20024;-78
2021/11/08 07:17:21;;;;;;;4.15;2.88;;;;;;;-143.85;100.00;70650.75;5091015;28;20024;-77
2021/11/08 07:19:50;;;;;;;4.63;3.40;;;;;;;-143.85;100.00;70650.75;5091117;28;20028;-78
2021/11/08 07:22:15;;;;;;;3.55;2.80;;;;;;;-143.85;100.00;70650.75;5091395;28;20034;-75
2021/11/08 07:24:41;;;;;;;2.50;1.67;;;;;;;-143.85;100.00;70650.75;5091038;28;20512;-77
2021/11/08 07:27:07;;;;;;;1.33;1.30;;;;;;;-143.85;100.00;70650.75;5090955;28;20027;-78
2021/11/08 07:29:36;;;;;;;3.05;2.83;;;;;;;-143.85;100.00;70650.75;5090963;28;20027;-78
2021/11/08 07:32:03;;;;;;;4.20;2.72;;;;;;;-143.85;100.00;70650.75;5090968;28;20027;-78
2021/11/08 07:34:28;;;;;;;2.00;1.75;;;;;;;-143.85;100.00;70650.75;5090905;28;20040;-78
2021/11/08 07:36:54;;;;;;;8.40;3.15;;;;;;;-143.85;100.00;70650.75;5090854;28;20028;-78
2021/11/08 07:39:20;;;;;;;5.28;4.18;;;;;;;-143.85;100.00;70650.75;5090671;28;20047;-79
2021/11/08 07:41:45;;;;;;;4.78;3.25;;;;;;;-143.85;100.00;70650.75;5092418;28;20082;-78
2021/11/08 07:44:11;;;;;;;2.17;2.03;;;;;;;-143.85;100.00;70650.75;5090811;28;20024;-78
2021/11/08 07:46:37;;;;;;;3.55;3.33;;;;;;;-143.85;100.00;70650.75;5090875;28;20020;-78
2021/11/08 07:49:02;;;;;;;1.77;1.67;;;;;;;-143.85;100.00;70650.75;5092246;28;20036;-79
2021/11/08 07:51:28;;;;;;;10.10;3.50;;;;;;;-143.85;100.00;70650.75;5094720;28;20093;-78
2021/11/08 07:53:53;;;;;;;1.88;1.55;;;;;;;-143.85;100.00;70650.75;5094671;28;20028;-79
2021/11/08 07:56:19;;;;;;;4.70;3.40;;;;;;;-143.85;100.00;70650.75;5094952;28;20024;-78
2021/11/08 07:58:45;;;;;;;3.35;3.05;;;;;;;-143.85;100.00;70650.75;5095259;28;20110;-78
2021/11/08 08:01:11;;;;;;;2.28;2.17;;;;;;;-143.85;100.00;70650.75;5094752;28;20479;-78
2021/11/08 08:03:37;;;;;;;2.03;1.92;;;;;;;-143.85;100.00;70650.75;5094454;28;20032;-79
2021/11/08 08:06:04;;;;;;;7.28;2.28;;;;;;;-143.85;100.00;70650.75;5094439;28;20487;-79
2021/11/08 08:08:30;;;;;;;5.10;3.10;;;;;;;-143.85;100.00;70650.75;5096220;28;20052;-78
2021/11/08 08:10:56;;;;;;;2.80;2.30;;;;;;;-143.85;100.00;70650.75;5095148;28;20028;-79
2021/11/08 08:13:26;;;;;;;4.47;2.42;;;;;;;-143.85;100.00;70650.75;5096052;28;20102;-79
2021/11/08 08:15:58;;;;;;;2.17;2.08;;;;;;;-143.85;100.00;70650.75;5094338;28;20499;-79
2021/11/08 08:18:23;;;;;;;4.45;2.88;;;;;;;-143.85;100.00;70650.75;5094390;28;20024;-79
2021/11/08 08:20:49;;;;;;;6.57;3.70;;;;;;;-143.85;100.00;70650.75;5094158;28;20028;-78
2021/11/08 08:23:14;;;;;;;3.05;2.63;;;;;;;-143.85;100.00;70650.75;5094259;28;20032;-78
2021/11/08 08:25:40;;;;;;;5.43;4.90;;;;;;;-143.85;100.00;70650.75;5095493;28;20476;-79
2021/11/08 08:28:05;;;;;;;4.82;3.80;;;;;;;-143.85;100.00;70650.75;5095360;28;20504;-79
2021/11/08 08:30:31;;;;;;;4.55;4.03;;;;;;;-143.85;100.00;70650.75;5094197;28;20028;-79
2021/11/08 08:32:56;;;;;;;8.68;5.45;;;;;;;-143.85;100.00;70650.75;5093995;28;20050;-79
2021/11/08 08:35:22;;;;;;;3.95;3.63;;;;;;;-143.85;100.00;70650.75;5094022;28;20126;-79
2021/11/08 08:37:47;;;;;;;4.82;4.35;;;;;;;-143.85;100.00;70650.75;5093857;28;20119;-79
2021/11/08 08:40:14;;;;;;;6.78;3.38;;;;;;;-143.85;100.00;70650.75;5093868;28;20027;-79
2021/11/08 08:42:40;;;;;;;3.70;2.55;;;;;;;-143.85;100.00;70650.75;5093530;28;20043;-79
2021/11/08 08:45:06;;;;;;;2.85;2.65;;;;;;;-143.85;100.00;70650.75;5093782;28;20031;-79
2021/11/08 08:47:32;;;;;;;4.10;3.30;;;;;;;-143.85;100.00;70650.75;5093874;28;20051;-79
2021/11/08 08:49:58;;;;;;;3.75;2.28;;;;;;;-143.85;100.00;70650.75;5093608;28;20047;-75
2021/11/08 08:52:23;;;;;;;4.00;3.70;;;;;;;-143.85;100.00;70650.75;5094668;28;20020;-78
2021/11/08 08:54:51;;;;;;;5.10;4.00;;;;;;;-143.85;100.00;70650.75;5093656;28;20024;-79
2021/11/08 08:57:16;;;;;;;2.75;2.55;;;;;;;-143.85;100.00;70650.75;5093585;28;20032;-78
2021/11/08 08:59:42;;;;;;;3.50;3.20;;;;;;;-143.85;100.00;70650.75;5093467;28;20020;-79
2021/11/08 09:02:08;;;;;;;2.25;1.52;;;;;;;-143.85;100.00;70650.75;5093183;28;20028;-79
2021/11/08 09:04:36;;;;;;;2.95;2.67;;;;;;;-143.85;100.00;70650.75;5094196;28;20106;-78
2021/11/08 09:07:01;;;;;;;2.13;1.60;;;;;;;-143.85;100.00;70650.75;5092964;28;20048;-78
2021/11/08 09:09:27;;;;;;;4.40;1.67;;;;;;;-143.85;100.00;70650.75;5093281;28;20176;-79
2021/11/08 09:11:52;;;;;;;2.97;1.15;;;;;;;-143.85;100.00;70650.75;5093361;28;20080;-80
2021/11/08 09:14:18;;;;;;;3.05;2.17;;;;;;;-143.85;100.00;70650.75;5093150;28;20493;-78
2021/11/08 09:16:44;;;;;;;1.55;1.40;;;;;;;-143.85;100.00;70650.75;5093474;28;20020;-77
2021/11/08 09:19:09;;;;;;;1.70;1.60;;;;;;;-143.85;100.00;70650.75;5092827;28;20614;-78
2021/11/08 09:21:35;;;;;;;1.52;1.48;;;;;;;-143.85;100.00;70650.75;5092593;28;20032;-77
2021/11/08 09:24:03;;;;;;;6.03;4.00;;;;;;;-143.85;100.00;70650.75;5091251;28;20407;-78
2021/11/08 09:26:32;;;;;;;5.15;2.42;;;;;;;-143.85;100.00;70650.75;5092776;28;20082;-78
2021/11/08 09:28:58;;;;;;;5.45;2.58;;;;;;;-143.85;100.00;70650.75;5092726;28;20036;-78
2021/11/08 09:31:25;;;;;;;4.18;3.50;;;;;;;-143.85;100.00;70650.75;5092599;28;20556;-79
2021/11/08 09:33:56;;;;;;;1.45;1.35;;;;;;;-143.85;100.00;70650.75;5092040;28;20479;-78
2021/11/08 09:36:22;;;;;;;5.68;2.88;;;;;;;-143.85;100.00;70650.75;5093991;28;20041;-80
2021/11/08 09:38:55;;;;;;;9.30;2.63;;;;;;;-143.85;100.00;70650.75;5092954;28;20426;-76
2021/11/08 09:41:21;;;;;;;3.85;3.00;;;;;;;-143.85;100.00;70650.75;5092288;28;20031;-77
2021/11/08 09:43:48;;;;;;;6.40;2.22;;;;;;;-143.85;100.00;70650.75;5092685;28;20024;-80
2021/11/08 09:46:14;;;;;;;2.40;2.20;;;;;;;-143.85;100.00;70650.75;5092689;28;20030;-79
2021/11/08 09:48:41;;;;;;;3.15;1.70;;;;;;;-143.85;100.00;70650.75;5092251;28;20028;-78
2021/11/08 09:51:09;;;;;;;3.22;2.75;;;;;;;-143.85;100.00;70650.75;5092440;28;20028;-80
2021/11/08 09:53:35;;;;;;;2.10;1.88;;;;;;;-143.85;100.00;70650.75;5092544;28;20028;-77
2021/11/08 09:56:04;;;;;;;5.35;3.10;;;;;;;-143.85;100.00;70650.75;5092426;28;20035;-75
2021/11/08 09:58:29;;;;;;;2.33;2.22;;;;;;;-143.85;100.00;70650.75;5092493;28;20544;-79
2021/11/08 10:00:56;;;;;;;2.70;2.15;;;;;;;-143.85;100.00;70650.75;5092559;28;20020;-80
2021/11/08 10:03:25;;;;;;;17.85;3.47;;;;;;;-143.85;100.00;70650.75;5092673;28;20028;-81
2021/11/08 10:05:54;;;;;;;6.05;3.28;;;;;;;-143.85;100.00;70650.75;5092359;28;20101;-79
2021/11/08 10:08:23;;;;;;;3.40;2.38;;;;;;;-143.85;100.00;70650.75;5092070;28;20047;-79
2021/11/08 10:10:51;;;;;;;3.50;3.08;;;;;;;-143.85;100.00;70650.75;5092306;28;20039;-79
2021/11/08 10:13:20;;;;;;;5.40;3.35;;;;;;;-143.85;100.00;70650.75;5091428;28;20395;-79
2021/11/08 10:15:49;;;;;;;1.85;1.67;;;;;;;-143.85;100.00;70650.75;5092227;28;20039;-79
2021/11/08 10:18:17;;;;;;;3.17;1.67;;;;;;;-143.85;100.00;70650.75;5092754;28;20032;-80
2021/11/08 10:20:49;;;;;;;15.55;3.92;;;;;;;-143.85;100.00;70650.75;5092145;28;20032;-80
2021/11/08 10:23:19;;;;;;;9.15;3.70;;;;;;;-143.85;100.00;70650.75;5092283;28;20028;-79
2021/11/08 10:25:45;;;;;;;4.68;3.55;;;;;;;-143.85;100.00;70650.75;5092105;28;20032;-79
2021/11/08 10:28:16;;;;;;;4.38;3.55;;;;;;;-143.85;100.00;70650.75;5091623;28;20506;-76
2021/11/08 10:30:43;;;;;;;6.80;2.75;;;;;;;-143.85;100.00;70650.75;5092485;28;20023;-77
2021/11/08 10:33:13;;;;;;;2.38;2.17;;;;;;;-143.85;100.00;70650.75;5091831;28;20028;-78
2021/11/08 10:35:51;;;;;;;10.23;4.30;;;;;;;-143.85;100.00;70650.75;5091977;28;20024;-78
2021/11/08 10:38:20;;;;;;;2.10;1.88;;;;;;;-143.85;100.00;70650.75;5091797;28;20024;-79
2021/11/08 10:40:58;;;;;;;2.40;2.15;;;;;;;-143.85;100.00;70650.75;5091782;28;20043;-79
2021/11/08 10:43:54;;;;;;;5.72;3.03;;;;;;;-143.85;100.00;70650.75;5091625;28;20062;-79
2021/11/08 10:46:31;;;;;;;6.88;4.55;;;;;;;-143.85;100.00;70650.75;5091772;28;20479;-79
2021/11/08 10:49:01;;;;;;;9.87;4.07;;;;;;;-143.85;100.00;70650.75;5091465;28;20035;-78
2021/11/08 10:51:30;;;;;;;5.07;2.90;;;;;;;-143.85;100.00;70650.75;5091417;28;20039;-78
2021/11/08 10:53:59;;;;;;;2.42;2.22;;;;;;;-143.85;100.00;70650.75;5092908;28;20062;-76
2021/11/08 10:56:26;;;;;;;1.42;1.38;;;;;;;-143.85;100.00;70650.75;5091765;28;20483;-79
2021/11/08 10:58:54;;;;;;;4.30;2.45;;;;;;;-143.85;100.00;70650.75;5091178;28;20028;-75
2021/11/08 11:01:25;;;;;;;;;;;;;;;-143.85;100.00;70650.75;5091592;28;20552;-81
2021/11/08 11:03:55;;;;;;;16.42;2.10;;;;;;;-143.85;100.00;70650.75;5091215;28;19915;-80
2021/11/08 11:06:33;;;;;;;3.80;2.67;;;;;;;-143.85;100.00;70650.75;5090990;28;20024;-79
2021/11/08 11:09:01;;;;;;;21.70;2.50;;;;;;;-143.85;100.00;70650.75;5091259;28;20029;-79
2021/11/08 11:11:27;;;;;;;;;;;;;;;-143.85;100.00;70650.75;5092950;28;20033;-79
2021/11/08 11:13:54;;;;;;;2.90;1.98;;;;;;;-143.85;100.00;70650.75;5090523;28;20322;-78
2021/11/08 11:16:38;;;;;;;4.10;3.10;;;;;;;-143.85;100.00;70650.75;5091774;28;20016;-79
2021/11/08 11:19:10;;;;;;;2.75;2.03;;;;;;;-143.85;100.00;70650.75;5090364;28;20036;-75
2021/11/08 11:21:39;;;;;;;6.35;3.05;;;;;;;-143.85;100.00;70650.75;5092219;28;20494;-72
2021/11/08 11:24:06;;;;;;;2.13;2.03;;;;;;;-143.85;100.00;70650.75;5093258;28;20035;-80
2021/11/08 11:26:46;;;;;;;1.67;1.57;;;;;;;-143.85;100.00;70650.75;5095182;28;20056;-78
2021/11/08 11:29:12;;;;;;;4.80;3.38;;;;;;;-143.85;100.00;70650.75;5095378;28;20040;-73
2021/11/08 11:31:38;;;;;;;10.93;4.43;;;;;;;-143.85;100.00;70650.75;5095600;28;20028;-73
2021/11/08 11:34:15;;;;;;;7.45;3.72;;;;;;;-143.85;100.00;70650.75;5095558;28;20453;-73
2021/11/08 11:36:42;;;;;;;3.63;1.77;;;;;;;-143.85;100.00;70650.75;5095545;28;20036;-73
2021/11/08 11:39:13;;;;;;;3.05;2.22;;;;;;;-143.85;100.00;70650.75;5096247;28;20395;-73
2021/11/08 11:41:42;;;;;;;4.00;2.97;;;;;;;-143.85;100.00;70650.75;5095847;28;20081;-74
2021/11/08 11:44:17;;;;;;;6.13;2.78;;;;;;;-143.85;100.00;70650.75;5096451;28;20016;-73
2021/11/08 11:46:46;;;;;;;13.40;6.75;;;;;;;-143.85;100.00;70650.75;5095154;28;20461;-74
2021/11/08 11:49:13;;;;;;;2.78;2.63;;;;;;;-143.85;100.00;70650.75;5095265;28;20038;-73
2021/11/08 11:51:46;;;;;;;3.80;3.08;;;;;;;-143.85;100.00;70650.75;5096468;28;20032;-73
2021/11/08 11:54:13;;;;;;;2.95;2.50;;;;;;;-143.85;100.00;70650.75;5094762;28;20028;-74
2021/11/08 11:56:42;;;;;;;1.45;1.35;;;;;;;-143.85;100.00;70650.75;5095001;28;20472;-75
